createdAt,value
2019-03-26T00:03:43.685Z,95707.84
2019-03-26T00:08:40.699Z,95697.35
2019-03-26T00:13:37.770Z,95700.19
2019-03-26T00:18:34.959Z,95704.02
2019-03-26T00:23:34.296Z,95717.97
2019-03-26T00:28:31.309Z,95727.94
2019-03-26T00:33:36.162Z,95725.13
2019-03-26T00:38:27.409Z,95741.70
2019-03-26T00:43:24.467Z,95744.39
2019-03-26T00:48:21.568Z,95745.55
2019-03-26T00:53:18.635Z,95740.74
2019-03-26T00:58:16.860Z,95744.38
2019-03-26T01:03:13.929Z,95734.45
2019-03-26T01:08:11.015Z,95733.59
2019-03-26T01:13:07.984Z,95740.41
2019-03-26T01:18:05.493Z,95739.91
2019-03-26T01:23:02.642Z,95732.42
2019-03-26T01:27:59.850Z,95742.05
2019-03-26T01:32:56.872Z,95745.38
2019-03-26T01:37:53.957Z,95740.74
2019-03-26T01:42:51.034Z,95749.05
2019-03-26T01:47:48.269Z,95762.00
2019-03-26T01:52:45.446Z,95762.83
2019-03-26T01:57:46.263Z,95771.34
2019-03-26T02:02:45.593Z,95772.50
2019-03-26T02:07:42.719Z,95777.99
2019-03-26T02:12:39.782Z,95785.14
2019-03-26T02:17:37.244Z,95776.64
2019-03-26T02:22:34.236Z,95780.27
2019-03-26T02:27:31.383Z,95784.09
2019-03-26T02:32:28.438Z,95787.78
2019-03-26T02:37:28.211Z,95803.91
2019-03-26T02:42:25.270Z,95809.37
2019-03-26T02:47:24.119Z,95807.55
2019-03-26T02:52:21.175Z,95804.05
2019-03-26T02:57:18.229Z,95819.87
2019-03-26T03:02:15.318Z,95831.83
2019-03-26T03:07:15.103Z,95833.15
2019-03-26T03:12:12.157Z,95828.65
2019-03-26T03:17:09.163Z,95830.49
2019-03-26T03:22:06.139Z,95835.31
2019-03-26T03:27:06.053Z,95842.13
2019-03-26T03:32:03.191Z,95833.64
2019-03-26T03:37:00.283Z,95832.66
2019-03-26T03:41:57.291Z,95845.80
2019-03-26T03:46:56.810Z,95848.47
2019-03-26T03:51:55.665Z,95858.42
2019-03-26T03:56:52.776Z,95876.91
2019-03-26T04:01:49.840Z,95871.25
2019-03-26T04:06:46.972Z,95889.17
2019-03-26T04:11:44.450Z,95898.79
2019-03-26T04:16:41.662Z,95904.96
2019-03-26T04:21:38.710Z,95908.38
2019-03-26T04:26:35.773Z,95927.05
2019-03-26T04:31:32.904Z,95937.61
2019-03-26T04:36:30.640Z,95951.77
2019-03-26T04:41:27.722Z,95957.28
2019-03-26T04:46:24.827Z,95967.70
2019-03-26T04:51:21.789Z,95981.64
2019-03-26T04:56:19.235Z,95985.73
2019-03-26T05:01:16.619Z,96001.56
2019-03-26T05:06:13.600Z,96015.20
2019-03-26T05:11:10.705Z,96019.00
2019-03-26T05:16:10.907Z,96031.41
2019-03-26T05:21:08.052Z,96032.83
2019-03-26T05:26:05.271Z,96025.57
2019-03-26T05:31:04.179Z,96044.03
2019-03-26T05:36:01.308Z,96060.89
2019-03-26T05:40:58.334Z,96066.09
2019-03-26T05:45:55.403Z,96076.23
2019-03-26T05:50:53.542Z,96071.96
2019-03-26T05:55:50.662Z,96067.45
2019-03-26T06:00:47.740Z,96066.98
2019-03-26T06:05:44.882Z,96075.55
2019-03-26T06:10:41.947Z,96077.84
2019-03-26T06:15:39.045Z,96080.83
2019-03-26T06:20:36.420Z,96088.25
2019-03-26T06:25:33.560Z,96087.58
2019-03-26T06:30:30.755Z,96091.14
2019-03-26T06:35:30.921Z,96087.88
2019-03-26T06:40:27.966Z,96090.56
2019-03-26T06:45:25.046Z,96090.05
2019-03-26T06:50:23.336Z,96088.97
2019-03-26T06:55:20.469Z,96087.22
2019-03-26T07:00:28.053Z,96083.67
2019-03-26T07:05:31.824Z,96091.52
2019-03-26T07:10:29.720Z,96096.65
2019-03-26T07:15:27.852Z,96105.05
2019-03-26T07:20:24.926Z,96089.23
2019-03-26T07:25:22.064Z,96099.73
2019-03-26T07:30:36.997Z,96110.23
2019-03-26T07:35:34.362Z,96117.04
2019-03-26T07:40:31.519Z,96114.71
2019-03-26T07:45:28.570Z,96105.89
2019-03-26T07:50:25.923Z,96104.69
2019-03-26T07:55:23.004Z,96111.92
2019-03-26T08:00:35.535Z,96108.28
2019-03-26T08:05:32.839Z,96108.05
2019-03-26T08:10:31.413Z,96107.16
2019-03-26T08:15:28.501Z,96117.86
2019-03-26T08:20:25.618Z,96119.53
2019-03-26T08:25:23.565Z,96114.67
2019-03-26T08:30:20.827Z,96114.98
2019-03-26T08:35:21.956Z,96121.60
2019-03-26T08:40:19.803Z,96121.11
2019-03-26T08:45:33.074Z,96129.30
2019-03-26T08:50:17.654Z,96130.66
2019-03-26T08:55:14.715Z,96125.83
2019-03-26T09:00:12.345Z,96134.99
2019-03-26T09:05:14.951Z,96130.44
2019-03-26T09:10:12.919Z,96142.04
2019-03-26T09:15:14.404Z,96110.88
2019-03-26T09:20:11.364Z,96138.38
2019-03-26T09:25:08.619Z,96141.34
2019-03-26T09:30:10.689Z,96134.81
2019-03-26T09:35:08.568Z,96140.69
2019-03-26T09:40:07.579Z,96141.12
2019-03-26T09:45:09.546Z,96135.72
2019-03-26T09:50:11.109Z,96140.59
2019-03-26T09:55:08.892Z,96143.39
2019-03-26T10:00:16.732Z,96149.80
2019-03-26T10:05:38.162Z,96135.94
2019-03-26T10:10:45.739Z,96142.70
2019-03-26T10:15:42.809Z,96144.64
2019-03-26T10:20:40.073Z,96152.55
2019-03-26T10:25:37.169Z,96138.41
2019-03-26T10:30:39.396Z,96139.98
2019-03-26T10:35:36.524Z,96136.03
2019-03-26T10:40:37.175Z,96138.79
2019-03-26T10:45:37.006Z,96133.73
2019-03-26T10:50:34.099Z,96130.53
2019-03-26T10:55:31.096Z,96129.22
2019-03-26T11:00:34.932Z,96120.96
2019-03-26T11:05:33.008Z,96118.38
2019-03-26T11:10:30.192Z,96121.95
2019-03-26T11:15:47.358Z,96113.24
2019-03-26T11:20:46.599Z,96109.62
2019-03-26T11:25:43.703Z,96107.48
2019-03-26T11:30:42.386Z,96100.20
2019-03-26T11:35:39.443Z,96097.64
2019-03-26T11:40:36.589Z,96098.61
2019-03-26T11:45:35.441Z,96095.20
2019-03-26T11:50:33.040Z,96084.88
2019-03-26T11:55:30.140Z,96087.28
2019-03-26T12:00:40.220Z,96083.73
2019-03-26T12:05:37.274Z,96069.55
2019-03-26T12:10:34.483Z,96050.28
2019-03-26T12:15:31.621Z,96045.95
2019-03-26T12:20:28.751Z,96043.97
2019-03-26T12:25:25.747Z,96037.55
2019-03-26T12:30:32.369Z,96050.05
2019-03-26T12:35:30.257Z,96033.69
2019-03-26T12:40:29.429Z,96024.43
2019-03-26T12:45:26.854Z,96025.41
2019-03-26T12:50:27.078Z,96029.98
2019-03-26T12:55:24.115Z,96034.30
2019-03-26T13:00:32.202Z,96024.38
2019-03-26T13:05:29.386Z,96010.44
2019-03-26T13:10:26.466Z,96012.08
2019-03-26T13:15:26.125Z,95996.32
2019-03-26T13:20:23.193Z,96001.94
2019-03-26T13:25:21.665Z,95994.59
2019-03-26T13:30:20.439Z,95985.06
2019-03-26T13:35:19.403Z,95988.82
2019-03-26T13:40:27.105Z,95984.59
2019-03-26T13:45:17.239Z,95988.77
2019-03-26T13:50:14.935Z,95991.21
2019-03-26T13:55:12.007Z,95985.22
2019-03-26T14:00:09.980Z,95976.52
2019-03-26T14:05:24.669Z,95971.31
2019-03-26T14:10:21.905Z,95969.14
2019-03-26T14:15:18.997Z,95963.97
2019-03-26T14:20:19.275Z,95976.42
2019-03-26T14:25:18.758Z,95975.08
2019-03-26T14:30:38.367Z,95974.43
2019-03-26T14:35:35.364Z,95956.45
2019-03-26T14:40:34.721Z,95953.30
2019-03-26T14:45:34.040Z,95946.17
2019-03-26T14:50:31.166Z,95955.47
2019-03-26T14:55:28.178Z,95954.98
2019-03-26T15:00:25.865Z,95955.05
2019-03-26T15:05:23.700Z,95967.36
2019-03-26T15:10:23.430Z,95964.69
2019-03-26T15:15:19.991Z,95961.38
2019-03-26T15:20:17.018Z,95960.28
2019-03-26T15:25:14.061Z,95956.06
2019-03-26T15:30:11.556Z,95932.39
2019-03-26T15:35:08.895Z,95932.97
2019-03-26T15:40:08.360Z,95931.55
2019-03-26T15:45:07.691Z,95928.00
2019-03-26T15:50:06.086Z,95915.19
2019-03-26T15:55:04.211Z,95917.49
2019-03-26T16:00:01.467Z,95913.38
2019-03-26T16:04:58.545Z,95912.04
2019-03-26T16:09:55.580Z,95909.86
2019-03-26T16:14:52.615Z,95908.03
2019-03-26T16:19:49.692Z,95896.70
2019-03-26T16:24:46.752Z,95900.43
2019-03-26T16:29:43.777Z,95900.55
2019-03-26T16:34:40.781Z,95891.16
2019-03-26T16:39:37.896Z,95879.83
2019-03-26T16:44:34.993Z,95880.70
2019-03-26T16:49:32.262Z,95874.44
2019-03-26T16:54:29.383Z,95866.73
2019-03-26T16:59:26.465Z,95871.47
2019-03-26T17:04:23.423Z,95854.45
2019-03-26T17:09:20.522Z,95849.01
2019-03-26T17:14:17.642Z,95856.60
2019-03-26T17:19:15.036Z,95848.11
2019-03-26T17:24:11.988Z,95851.34
2019-03-26T17:29:09.069Z,95841.63
2019-03-26T17:34:06.041Z,95850.20
2019-03-26T17:39:07.820Z,95854.45
2019-03-26T17:44:04.901Z,95852.48
2019-03-26T17:49:01.885Z,95860.23
2019-03-26T17:53:58.999Z,95910.48
2019-03-26T17:58:56.416Z,95944.59
2019-03-26T18:03:53.498Z,95967.82
2019-03-26T18:08:50.595Z,95986.36
2019-03-26T18:13:47.558Z,95995.32
2019-03-26T18:18:44.651Z,95995.30
2019-03-26T18:23:41.750Z,95996.17
2019-03-26T18:28:38.934Z,95967.92
2019-03-26T18:33:36.133Z,95971.55
2019-03-26T18:38:33.412Z,95976.30
2019-03-26T18:43:32.556Z,95968.87
2019-03-26T18:48:33.484Z,95968.64
2019-03-26T18:53:32.601Z,95949.86
2019-03-26T18:58:30.118Z,95964.14
2019-03-26T19:03:27.418Z,95964.62
2019-03-26T19:08:24.722Z,95951.41
2019-03-26T19:13:21.921Z,95951.38
2019-03-26T19:18:19.053Z,95949.07
2019-03-26T19:23:16.251Z,95954.88
2019-03-26T19:28:13.333Z,95957.36
2019-03-26T19:33:10.496Z,95958.38
2019-03-26T19:38:08.413Z,95968.83
2019-03-26T19:43:11.435Z,95962.48
2019-03-26T19:48:04.352Z,95954.00
2019-03-26T19:53:01.340Z,95965.63
2019-03-26T19:57:58.447Z,95958.16
2019-03-26T20:02:55.985Z,95960.14
2019-03-26T20:07:53.009Z,95959.47
2019-03-26T20:12:50.081Z,95960.87
2019-03-26T20:17:47.149Z,95958.58
2019-03-26T20:22:44.158Z,95974.94
2019-03-26T20:27:41.229Z,95958.22
2019-03-26T20:32:38.303Z,95983.43
2019-03-26T20:37:35.640Z,95990.63
2019-03-26T20:42:32.907Z,96015.54
2019-03-26T20:47:30.006Z,96040.36
2019-03-26T20:52:27.095Z,96060.58
2019-03-26T20:57:25.753Z,96075.95
2019-03-26T21:02:22.725Z,96080.12
2019-03-26T21:07:20.656Z,96090.05
2019-03-26T21:12:17.611Z,96095.17
2019-03-26T21:17:14.809Z,96115.13
2019-03-26T21:22:11.852Z,96113.09
2019-03-26T21:27:08.844Z,96121.89
2019-03-26T21:32:05.808Z,96136.90
2019-03-26T21:37:03.322Z,96134.25
2019-03-26T21:42:00.264Z,96125.75
2019-03-26T21:46:57.249Z,96138.70
2019-03-26T21:51:55.430Z,96147.36
2019-03-26T21:56:53.604Z,96153.03
2019-03-26T22:01:50.544Z,96155.83
2019-03-26T22:06:47.539Z,96146.41
2019-03-26T22:11:50.017Z,96157.11
2019-03-26T22:16:45.178Z,96163.89
2019-03-26T22:21:42.227Z,96157.36
2019-03-26T22:26:39.256Z,96162.47
2019-03-26T22:31:36.203Z,96171.28
2019-03-26T22:36:33.238Z,96184.14
2019-03-26T22:41:30.213Z,96187.55
2019-03-26T22:46:27.223Z,96191.17
2019-03-26T22:51:24.161Z,96201.20
2019-03-26T22:56:21.191Z,96205.87
2019-03-26T23:01:20.031Z,96205.64
2019-03-26T23:06:17.028Z,96204.38
2019-03-26T23:11:14.183Z,96198.81
2019-03-26T23:16:12.787Z,96201.73
2019-03-26T23:21:09.881Z,96206.61
2019-03-26T23:26:06.881Z,96209.67
2019-03-26T23:31:03.895Z,96221.04
2019-03-26T23:36:00.887Z,96221.95
2019-03-26T23:40:59.972Z,96231.13
2019-03-26T23:45:56.793Z,96229.67
2019-03-26T23:50:53.754Z,96238.30
2019-03-26T23:55:50.750Z,96233.72
